createdAt,value
2022-08-21T00:03:26.806Z,2.20
2022-08-21T00:07:38.458Z,2.38
2022-08-21T00:11:50.186Z,2.08
2022-08-21T00:16:02.532Z,2.10
2022-08-21T00:20:16.928Z,2.63
2022-08-21T00:24:28.673Z,1.80
2022-08-21T00:28:40.403Z,2.28
2022-08-21T00:32:53.964Z,2.30
2022-08-21T00:37:05.703Z,2.03
2022-08-21T00:41:29.869Z,1.75
2022-08-21T00:45:49.229Z,2.15
2022-08-21T00:50:01.139Z,2.80
2022-08-21T00:54:18.113Z,1.95
2022-08-21T00:58:32.776Z,2.10
2022-08-21T01:02:45.223Z,1.90
2022-08-21T01:06:57.163Z,2.15
2022-08-21T01:11:08.933Z,1.92
2022-08-21T01:15:23.113Z,1.90
2022-08-21T01:19:35.410Z,1.85
2022-08-21T01:23:50.239Z,2.03
2022-08-21T01:28:10.210Z,2.35
2022-08-21T01:32:22.237Z,2.22
2022-08-21T01:36:34.825Z,2.10
2022-08-21T01:40:47.109Z,2.13
2022-08-21T01:44:58.967Z,2.00
2022-08-21T01:49:10.590Z,1.83
2022-08-21T01:53:22.217Z,2.20
2022-08-21T01:57:46.174Z,2.38
2022-08-21T02:01:58.427Z,2.22
2022-08-21T02:06:15.837Z,2.55
2022-08-21T02:10:30.917Z,2.40
2022-08-21T02:14:42.964Z,2.80
2022-08-21T02:18:54.727Z,2.47
2022-08-21T02:23:07.884Z,2.35
2022-08-21T02:27:19.504Z,2.20
2022-08-21T02:31:38.069Z,2.30
2022-08-21T02:35:50.377Z,3.00
2022-08-21T02:40:02.323Z,2.92
2022-08-21T02:44:14.066Z,2.92
2022-08-21T02:48:29.275Z,2.35
2022-08-21T02:52:41.354Z,2.78
2022-08-21T02:56:53.116Z,2.80
2022-08-21T03:01:04.958Z,2.63
2022-08-21T03:05:18.898Z,3.03
2022-08-21T03:09:30.614Z,2.80
2022-08-21T03:13:43.076Z,2.75
2022-08-21T03:17:55.462Z,3.25
2022-08-21T03:22:07.099Z,3.05
2022-08-21T03:26:18.869Z,2.92
2022-08-21T03:30:32.276Z,3.17
2022-08-21T03:34:43.901Z,3.17
2022-08-21T03:38:55.522Z,3.17
2022-08-21T03:43:09.976Z,3.15
2022-08-21T03:47:23.004Z,4.38
2022-08-21T03:51:34.673Z,3.35
2022-08-21T03:55:47.978Z,3.45
2022-08-21T03:59:59.558Z,3.25
2022-08-21T04:04:11.266Z,3.42
2022-08-21T04:08:25.413Z,3.55
2022-08-21T04:12:37.066Z,3.65
2022-08-21T04:16:48.745Z,3.58
2022-08-21T04:21:01.265Z,3.65
2022-08-21T04:25:15.300Z,4.13
2022-08-21T04:29:27.014Z,3.53
2022-08-21T04:33:38.834Z,3.83
2022-08-21T04:37:51.028Z,4.07
2022-08-21T04:42:02.719Z,4.18
2022-08-21T04:46:14.536Z,4.20
2022-08-21T04:50:46.286Z,4.15
2022-08-21T04:54:57.931Z,4.05
2022-08-21T04:59:18.350Z,4.10
2022-08-21T05:03:32.441Z,3.40
2022-08-21T05:07:45.562Z,4.00
2022-08-21T05:11:57.570Z,4.03
2022-08-21T05:16:09.220Z,4.63
2022-08-21T05:20:20.839Z,4.32
2022-08-21T05:24:32.975Z,4.30
2022-08-21T05:28:44.594Z,3.65
2022-08-21T05:33:01.196Z,4.22
2022-08-21T05:37:13.324Z,4.10
2022-08-21T05:41:24.988Z,3.83
2022-08-21T05:45:42.519Z,3.80
2022-08-21T05:49:55.195Z,4.60
2022-08-21T05:54:07.100Z,4.25
2022-08-21T05:58:21.182Z,4.70
2022-08-21T06:02:32.796Z,4.30
2022-08-21T06:06:44.438Z,4.22
2022-08-21T06:10:57.877Z,4.63
2022-08-21T06:15:10.197Z,4.57
2022-08-21T06:19:21.924Z,3.83
2022-08-21T06:23:34.979Z,4.10
2022-08-21T06:27:47.400Z,3.67
2022-08-21T06:31:59.141Z,4.10
2022-08-21T06:36:10.946Z,3.83
2022-08-21T06:40:23.076Z,4.05
2022-08-21T06:44:35.026Z,3.97
2022-08-21T06:48:46.715Z,4.03
2022-08-21T06:53:08.342Z,3.42
2022-08-21T06:57:20.003Z,3.72
2022-08-21T07:01:31.974Z,3.63
2022-08-21T07:05:43.893Z,3.40
2022-08-21T07:09:55.639Z,3.20
2022-08-21T07:14:07.333Z,3.35
2022-08-21T07:18:19.393Z,3.88
2022-08-21T07:22:31.413Z,3.53
2022-08-21T07:26:43.441Z,3.08
2022-08-21T07:30:58.192Z,3.10
2022-08-21T07:35:09.890Z,3.28
2022-08-21T07:39:21.760Z,2.95
2022-08-21T07:43:33.458Z,2.60
2022-08-21T07:47:45.964Z,2.95
2022-08-21T07:51:58.108Z,3.20
2022-08-21T07:56:09.924Z,3.03
2022-08-21T08:00:25.438Z,3.03
2022-08-21T08:04:37.138Z,2.72
2022-08-21T08:09:04.548Z,2.88
2022-08-21T08:13:17.206Z,3.22
2022-08-21T08:17:28.961Z,2.90
2022-08-21T08:21:40.758Z,2.63
2022-08-21T08:25:52.497Z,2.55
2022-08-21T08:30:06.368Z,3.20
2022-08-21T08:34:25.387Z,3.03
2022-08-21T08:38:37.426Z,3.65
2022-08-21T08:42:51.290Z,3.00
2022-08-21T08:47:04.242Z,2.92
2022-08-21T08:51:25.621Z,3.15
2022-08-21T08:55:43.045Z,2.67
2022-08-21T09:00:02.526Z,3.13
2022-08-21T09:04:23.518Z,2.75
2022-08-21T09:09:10.125Z,2.58
2022-08-21T09:14:07.155Z,2.35
2022-08-21T09:18:28.488Z,2.17
2022-08-21T09:22:56.041Z,2.25
2022-08-21T09:27:12.761Z,1.95
2022-08-21T09:31:32.147Z,1.90
2022-08-21T09:35:54.043Z,2.25
2022-08-21T09:40:36.054Z,1.98
2022-08-21T09:44:48.014Z,2.05
2022-08-21T09:49:02.539Z,1.75
2022-08-21T09:53:33.729Z,1.90
2022-08-21T09:57:50.409Z,1.80
2022-08-21T10:02:29.277Z,1.88
2022-08-21T10:06:42.268Z,1.60
2022-08-21T10:11:02.839Z,1.63
2022-08-21T10:15:37.554Z,1.75
2022-08-21T10:20:04.737Z,1.30
2022-08-21T10:24:34.483Z,1.30
2022-08-21T10:29:01.735Z,1.42
2022-08-21T10:33:22.427Z,1.63
2022-08-21T10:37:52.822Z,1.50
2022-08-21T10:42:42.857Z,1.85
2022-08-21T10:47:02.884Z,1.60
2022-08-21T10:51:57.053Z,1.77
2022-08-21T10:56:17.135Z,1.50
2022-08-21T11:00:42.252Z,1.70
2022-08-21T11:05:00.817Z,1.50
2022-08-21T11:09:15.614Z,1.45
2022-08-21T11:13:48.852Z,1.42
2022-08-21T11:18:30.954Z,1.55
2022-08-21T11:22:54.590Z,2.00
2022-08-21T11:27:19.582Z,1.63
2022-08-21T11:32:00.020Z,1.73
2022-08-21T11:36:37.901Z,1.45
2022-08-21T11:41:19.244Z,1.85
2022-08-21T11:45:38.079Z,1.67
2022-08-21T11:50:29.993Z,1.65
2022-08-21T11:54:47.679Z,1.80
2022-08-21T11:59:17.717Z,2.10
2022-08-21T12:03:33.375Z,2.00
2022-08-21T12:07:46.686Z,1.85
2022-08-21T12:12:03.942Z,1.60
2022-08-21T12:16:36.998Z,1.50
2022-08-21T12:21:02.035Z,1.58
2022-08-21T12:25:21.720Z,1.40
2022-08-21T12:29:38.301Z,1.30
2022-08-21T12:34:00.983Z,1.20
2022-08-21T12:38:27.809Z,1.30
2022-08-21T12:42:44.768Z,1.65
2022-08-21T12:47:05.057Z,1.45
2022-08-21T12:51:19.822Z,1.60
2022-08-21T12:55:34.233Z,1.30
2022-08-21T12:59:46.081Z,1.48
2022-08-21T13:04:04.862Z,1.20
2022-08-21T13:08:17.869Z,1.33
2022-08-21T13:12:32.762Z,1.40
2022-08-21T13:16:44.736Z,1.33
2022-08-21T13:21:10.976Z,1.52
2022-08-21T13:25:27.813Z,1.00
2022-08-21T13:29:39.550Z,1.52
2022-08-21T13:33:52.087Z,1.33
2022-08-21T13:38:06.390Z,1.40
2022-08-21T13:42:18.621Z,1.50
2022-08-21T13:46:33.686Z,1.23
2022-08-21T13:50:45.902Z,1.58
2022-08-21T13:55:00.342Z,1.52
2022-08-21T13:59:12.686Z,1.50
2022-08-21T14:03:43.630Z,1.40
2022-08-21T14:08:11.541Z,1.55
2022-08-21T14:12:44.643Z,1.48
2022-08-21T14:17:01.026Z,1.40
2022-08-21T14:21:35.169Z,1.25
2022-08-21T14:25:46.939Z,1.13
2022-08-21T14:30:10.901Z,1.40
2022-08-21T14:34:25.226Z,1.25
2022-08-21T14:38:39.593Z,1.73
2022-08-21T14:42:51.924Z,1.33
2022-08-21T14:47:03.857Z,1.17
2022-08-21T14:51:15.965Z,1.33
2022-08-21T14:55:28.516Z,1.23
2022-08-21T14:59:40.255Z,1.38
2022-08-21T15:03:52.330Z,1.55
2022-08-21T15:08:05.231Z,1.67
2022-08-21T15:12:17.001Z,1.38
2022-08-21T15:16:31.231Z,1.10
2022-08-21T15:20:42.942Z,1.23
2022-08-21T15:24:54.732Z,1.60
2022-08-21T15:29:08.916Z,1.70
2022-08-21T15:33:20.693Z,1.40
2022-08-21T15:37:33.350Z,1.40
2022-08-21T15:41:45.698Z,1.58
2022-08-21T15:46:00.306Z,1.50
2022-08-21T15:50:13.641Z,1.30
2022-08-21T15:54:25.327Z,1.40
2022-08-21T15:58:37.055Z,1.33
2022-08-21T16:02:52.767Z,1.65
2022-08-21T16:07:09.395Z,1.20
2022-08-21T16:11:21.639Z,1.13
2022-08-21T16:15:33.507Z,1.40
2022-08-21T16:19:45.404Z,1.30
2022-08-21T16:23:57.243Z,1.08
2022-08-21T16:28:14.025Z,1.25
2022-08-21T16:32:26.865Z,1.30
2022-08-21T16:36:41.253Z,1.58
2022-08-21T16:40:53.069Z,1.20
2022-08-21T16:45:12.086Z,1.40
2022-08-21T16:49:23.765Z,1.10
2022-08-21T16:53:35.453Z,1.65
2022-08-21T16:57:47.458Z,1.45
2022-08-21T17:01:59.133Z,1.23
2022-08-21T17:06:11.377Z,1.27
2022-08-21T17:10:23.430Z,1.35
2022-08-21T17:14:36.322Z,1.40
2022-08-21T17:18:47.975Z,1.70
2022-08-21T17:23:07.045Z,1.50
2022-08-21T17:27:22.570Z,1.55
2022-08-21T17:31:41.088Z,1.70
2022-08-21T17:35:54.046Z,1.20
2022-08-21T17:40:08.523Z,1.40
2022-08-21T17:44:21.565Z,1.33
2022-08-21T17:48:33.475Z,1.30
2022-08-21T17:52:47.169Z,1.40
2022-08-21T17:56:59.877Z,1.70
2022-08-21T18:01:12.423Z,1.30
2022-08-21T18:05:24.171Z,0.95
2022-08-21T18:09:35.768Z,1.90
2022-08-21T18:13:47.336Z,1.20
2022-08-21T18:17:59.525Z,1.20
2022-08-21T18:22:11.209Z,1.40
2022-08-21T18:26:29.528Z,1.67
2022-08-21T18:30:43.775Z,1.50
2022-08-21T18:34:57.304Z,1.10
2022-08-21T18:39:34.928Z,1.88
2022-08-21T18:43:40.594Z,1.65
2022-08-21T18:47:55.113Z,1.60
2022-08-21T18:52:07.310Z,1.50
2022-08-21T18:56:21.449Z,1.33
2022-08-21T19:00:44.346Z,1.30
2022-08-21T19:04:56.077Z,1.48
2022-08-21T19:09:10.122Z,1.40
2022-08-21T19:13:22.568Z,1.73
2022-08-21T19:17:34.612Z,1.33
2022-08-21T19:21:49.380Z,1.50
2022-08-21T19:26:03.843Z,1.63
2022-08-21T19:30:15.886Z,1.40
2022-08-21T19:34:29.122Z,1.60
2022-08-21T19:38:41.328Z,1.77
2022-08-21T19:42:53.183Z,1.42
2022-08-21T19:47:13.338Z,1.80
2022-08-21T19:51:30.826Z,1.73
2022-08-21T19:55:45.093Z,1.73
2022-08-21T20:00:00.202Z,1.73
2022-08-21T20:04:17.992Z,1.75
2022-08-21T20:08:31.660Z,1.67
2022-08-21T20:12:48.332Z,1.77
2022-08-21T20:17:10.614Z,1.80
2022-08-21T20:21:22.692Z,1.80
2022-08-21T20:25:35.999Z,1.38
2022-08-21T20:29:47.779Z,1.15
2022-08-21T20:34:01.733Z,1.60
2022-08-21T20:38:13.578Z,1.73
2022-08-21T20:42:25.433Z,1.65
2022-08-21T20:46:37.582Z,1.90
2022-08-21T20:50:57.066Z,1.35
2022-08-21T20:55:14.188Z,1.50
2022-08-21T20:59:34.974Z,1.40
2022-08-21T21:04:01.970Z,1.67
2022-08-21T21:08:25.264Z,1.50
2022-08-21T21:12:42.590Z,1.40
2022-08-21T21:17:03.531Z,1.77
2022-08-21T21:21:32.889Z,1.13
2022-08-21T21:26:06.612Z,1.45
2022-08-21T21:30:27.125Z,1.35
2022-08-21T21:34:42.353Z,1.60
2022-08-21T21:39:00.850Z,1.55
2022-08-21T21:43:21.403Z,1.40
2022-08-21T21:47:57.550Z,1.50
2022-08-21T21:52:44.490Z,1.40
2022-08-21T21:57:11.462Z,1.50
2022-08-21T22:01:41.308Z,1.48
2022-08-21T22:06:00.331Z,1.48
2022-08-21T22:10:43.225Z,1.30
2022-08-21T22:14:56.156Z,1.45
2022-08-21T22:19:30.728Z,1.45
2022-08-21T22:23:49.963Z,1.30
2022-08-21T22:28:09.956Z,1.35
2022-08-21T22:32:42.792Z,1.30
2022-08-21T22:37:05.043Z,2.15
2022-08-21T22:41:28.023Z,1.35
2022-08-21T22:46:10.660Z,1.25
2022-08-21T22:50:25.494Z,1.20
2022-08-21T22:54:45.204Z,1.23
2022-08-21T22:59:01.085Z,1.23
2022-08-21T23:03:25.980Z,1.55
2022-08-21T23:07:44.350Z,1.25
2022-08-21T23:12:02.773Z,1.52
2022-08-21T23:16:54.830Z,2.15
2022-08-21T23:21:22.978Z,1.58
2022-08-21T23:25:54.123Z,1.50
2022-08-21T23:30:18.560Z,1.52
2022-08-21T23:34:43.230Z,1.20
2022-08-21T23:39:13.423Z,1.52
2022-08-21T23:43:50.947Z,1.67
2022-08-21T23:48:29.619Z,1.50
2022-08-21T23:53:08.894Z,1.50
2022-08-21T23:57:53.629Z,1.42
